Bielsa, Aragón

latitud= 42° 37' 48''N |longitud= 000° 13' 29''E
990 metros sobre el nivel del mar | datos mensuales

Fecha, hora, temperatura, viento dirección y velocidad, humedad y presión.

  • 23-04-2018 10:00:00 | 13.10°C | Norte |11.00 km/h | 71.00% | 0.00 hPa
  • 23-04-2018 09:00:00 | 11.00°C | Noroeste |6.00 km/h | 80.00% | 0.00 hPa
  • 23-04-2018 08:00:00 | 9.70°C | Sur |4.00 km/h | 84.00% | 0.00 hPa
  • 23-04-2018 07:00:00 | 8.40°C | Calma |0.00 km/h | 82.00% | 0.00 hPa
  • 23-04-2018 06:00:00 | 7.80°C | Noroeste |4.00 km/h | 86.00% | 0.00 hPa
  • 23-04-2018 05:00:00 | 8.50°C | Noroeste |3.00 km/h | 82.00% | 0.00 hPa
  • 23-04-2018 04:00:00 | 8.50°C | Noroeste |4.00 km/h | 84.00% | 0.00 hPa
  • 23-04-2018 03:00:00 | 9.30°C | Noroeste |4.00 km/h | 82.00% | 0.00 hPa
  • 23-04-2018 02:00:00 | 10.10°C | Noroeste |3.00 km/h | 78.00% | 0.00 hPa
  • 23-04-2018 01:00:00 | 11.80°C | Noroeste |6.00 km/h | 73.00% | 0.00 hPa
  • 23-04-2018 00:00:00 | 12.00°C | Norte |3.00 km/h | 75.00% | 0.00 hPa
  • 22-04-2018 23:00:00 | 12.50°C | Noroeste |2.00 km/h | 73.00% | 0.00 hPa
  • 22-04-2018 22:00:00 | 13.80°C | Norte |3.00 km/h | 73.00% | 0.00 hPa
  • 22-04-2018 21:00:00 | 16.50°C | Sudeste |2.00 km/h | 60.00% | 0.00 hPa
  • 22-04-2018 20:00:00 | 18.20°C | Sudeste |10.00 km/h | 52.00% | 0.00 hPa
  • 22-04-2018 19:00:00 | 19.80°C | Sudeste |7.00 km/h | 41.00% | 0.00 hPa
  • 22-04-2018 18:00:00 | 21.10°C | Sudeste |7.00 km/h | 33.00% | 0.00 hPa
  • 22-04-2018 17:00:00 | 23.40°C | Sur |7.00 km/h | 29.00% | 0.00 hPa
  • 22-04-2018 16:00:00 | 23.10°C | Sudeste |9.00 km/h | 25.00% | 0.00 hPa
  • 22-04-2018 15:00:00 | 23.00°C | Sudeste |8.00 km/h | 28.00% | 0.00 hPa
  • 22-04-2018 14:00:00 | 22.80°C | Sudeste |9.00 km/h | 30.00% | 0.00 hPa
  • 22-04-2018 13:00:00 | 21.60°C | Sudeste |8.00 km/h | 29.00% | 0.00 hPa
  • 22-04-2018 12:00:00 | 19.90°C | Sudeste |8.00 km/h | 36.00% | 0.00 hPa
  • 22-04-2018 11:00:00 | 17.50°C | Este |5.00 km/h | 43.00% | 0.00 hPa